Time;durP1;ratioP1;P1;durP2;ratioP2;P2;SDS_P1;SDS_P2;PMS_P1;PMS_P2;Temp;Humidity;BMP_temperature;BMP_pressure;BME280_temperature;BME280_humidity;BME280_pressure;Samples;Min_cycle;Max_cycle;Signal;HPM_P1;HPM_P2
2022/01/05 00:01:29;;;;;;;1.20;1.10;;;;;;;3.00;100.00;94771.88;5078574;28;20437;-81
2022/01/05 00:03:56;;;;;;;1.30;1.20;;;;;;;2.50;100.00;94696.94;5074594;28;20454;-79
2022/01/05 00:06:23;;;;;;;1.87;1.23;;;;;;;2.56;100.00;94703.53;5058040;28;20494;-78
2022/01/05 00:08:49;;;;;;;1.10;1.00;;;;;;;2.76;100.00;94724.72;5073874;28;20444;-78
2022/01/05 00:11:16;;;;;;;1.20;1.10;;;;;;;2.76;100.00;94722.88;5074999;28;20468;-78
2022/01/05 00:13:43;;;;;;;0.93;0.83;;;;;;;2.73;100.00;94701.88;5074481;28;20523;-81
2022/01/05 00:16:10;;;;;;;1.00;0.90;;;;;;;2.51;100.00;94689.88;5073997;28;20482;-80
2022/01/05 00:18:37;;;;;;;1.50;1.40;;;;;;;2.62;100.00;94715.28;5057309;28;20535;-80
2022/01/05 00:21:04;;;;;;;1.00;0.90;;;;;;;2.44;100.00;94682.56;5074704;28;20448;-78
2022/01/05 00:23:31;;;;;;;2.37;1.20;;;;;;;2.87;100.00;94739.72;5073136;28;20802;-79
2022/01/05 00:26:01;;;;;;;1.87;1.13;;;;;;;2.56;100.00;94687.88;5072449;28;20526;-78
2022/01/05 00:28:27;;;;;;;1.33;1.23;;;;;;;2.51;100.00;94674.22;5073023;28;20452;-78
2022/01/05 00:30:54;;;;;;;1.30;1.20;;;;;;;2.63;100.00;94698.56;5073649;28;20436;-78
2022/01/05 00:33:21;;;;;;;1.10;1.00;;;;;;;2.85;100.00;94738.50;5073063;28;20981;-81
2022/01/05 00:35:47;;;;;;;0.97;0.87;;;;;;;2.57;100.00;94699.84;5072718;28;20581;-80
2022/01/05 00:38:14;;;;;;;1.30;1.00;;;;;;;2.42;100.00;94673.53;5073124;28;20433;-81
2022/01/05 00:40:41;;;;;;;1.47;1.23;;;;;;;2.70;100.00;94711.13;5073834;28;20474;-78
2022/01/05 00:43:07;;;;;;;1.30;1.20;;;;;;;2.47;100.00;94675.94;5088875;28;20569;-81
2022/01/05 00:45:34;;;;;;;1.07;1.00;;;;;;;2.88;100.00;94732.66;5075537;28;20961;-78
2022/01/05 00:48:01;;;;;;;1.73;1.13;;;;;;;2.88;100.00;94750.91;5074942;28;20509;-78
2022/01/05 00:50:27;;;;;;;1.00;0.97;;;;;;;2.59;100.00;94713.31;5073742;28;20463;-78
2022/01/05 00:53:00;;;;;;;1.30;1.20;;;;;;;2.89;100.00;94763.66;5074699;28;20474;-78
2022/01/05 00:55:28;;;;;;;1.40;1.30;;;;;;;2.64;100.00;94734.00;5073756;28;20430;-78
2022/01/05 00:57:54;;;;;;;1.10;1.00;;;;;;;2.52;100.00;94722.69;5057158;28;21016;-76
2022/01/05 01:00:21;;;;;;;1.80;1.70;;;;;;;2.34;100.00;94708.97;5056392;28;20824;-77
2022/01/05 01:02:48;;;;;;;1.30;1.20;;;;;;;2.70;100.00;94749.50;5075237;28;20506;-76
2022/01/05 01:05:15;;;;;;;1.60;1.50;;;;;;;2.54;100.00;94725.78;5074725;28;20471;-76
2022/01/05 01:07:44;;;;;;;1.67;1.57;;;;;;;2.76;100.00;94763.88;5075549;28;20841;-76
2022/01/05 01:10:11;;;;;;;1.77;1.67;;;;;;;2.57;100.00;94727.75;5073865;28;20950;-76
2022/01/05 01:12:37;;;;;;;1.87;1.77;;;;;;;2.91;100.00;94768.56;5073284;28;20468;-77
2022/01/05 01:15:06;;;;;;;1.70;1.60;;;;;;;2.90;100.00;94762.56;5074024;28;20444;-76
2022/01/05 01:17:33;;;;;;;0.90;0.90;;;;;;;2.79;100.00;94732.69;5073833;28;20456;-77
2022/01/05 01:20:01;;;;;;;1.27;1.17;;;;;;;2.76;100.00;94737.78;5072060;28;20436;-77
2022/01/05 01:22:30;;;;;;;0.90;0.90;;;;;;;2.55;100.00;94703.84;5074405;28;20463;-77
2022/01/05 01:24:57;;;;;;;1.20;1.20;;;;;;;2.96;100.00;94771.75;5057080;28;20440;-77
2022/01/05 01:27:23;;;;;;;1.27;1.17;;;;;;;2.99;100.00;94788.63;5074016;28;20518;-77
2022/01/05 01:29:50;;;;;;;2.97;1.30;;;;;;;2.91;100.00;94792.81;5055139;28;20869;-77
2022/01/05 01:32:17;;;;;;;1.67;1.20;;;;;;;2.76;100.00;94774.31;5070678;28;20436;-77
2022/01/05 01:34:44;;;;;;;1.67;1.30;;;;;;;2.66;100.00;94762.38;5070351;28;20465;-77
2022/01/05 01:37:10;;;;;;;1.47;1.37;;;;;;;2.38;100.00;94728.88;5071755;28;20528;-77
2022/01/05 01:39:37;;;;;;;1.00;0.97;;;;;;;2.45;100.00;94727.66;5070616;28;20436;-77
2022/01/05 01:42:04;;;;;;;1.10;1.00;;;;;;;2.74;100.00;94763.44;5054086;28;20444;-76
2022/01/05 01:44:31;;;;;;;1.30;1.20;;;;;;;2.56;100.00;94752.31;5070641;28;20482;-77
2022/01/05 01:46:58;;;;;;;1.30;1.20;;;;;;;2.33;100.00;94720.50;5070377;28;20513;-76
2022/01/05 01:49:25;;;;;;;1.30;1.20;;;;;;;2.52;100.00;94761.81;5087314;28;20498;-77
2022/01/05 01:51:52;;;;;;;1.00;1.00;;;;;;;2.57;100.00;94766.88;5053848;28;20876;-77
2022/01/05 01:54:18;;;;;;;1.47;1.37;;;;;;;1.80;100.00;94637.59;5074477;28;20499;-79
2022/01/05 01:56:46;;;;;;;1.37;1.27;;;;;;;2.54;100.00;94754.47;5091309;28;20459;-79
2022/01/05 01:59:35;;;;;;;1.20;1.10;;;;;;;2.47;100.00;94733.31;5074608;28;20443;-79
2022/01/05 02:02:03;;;;;;;1.20;1.10;;;;;;;2.40;100.00;94712.16;5000646;28;20434;-79
2022/01/05 02:04:30;;;;;;;1.37;1.27;;;;;;;2.17;100.00;94681.16;5033253;28;20438;-79
2022/01/05 02:06:57;;;;;;;1.40;1.30;;;;;;;2.42;100.00;94721.22;5017441;28;21071;-79
2022/01/05 02:09:24;;;;;;;1.10;1.00;;;;;;;1.68;100.00;94612.19;5016081;28;20446;-79
2022/01/05 02:11:51;;;;;;;0.93;0.93;;;;;;;1.26;100.00;94556.56;5032494;28;20440;-78
2022/01/05 02:14:17;;;;;;;1.37;1.27;;;;;;;2.08;100.00;94677.81;5016345;28;20492;-79
2022/01/05 02:16:45;;;;;;;1.03;0.93;;;;;;;2.23;100.00;94695.53;5031067;28;21006;-77
2022/01/05 02:19:13;;;;;;;1.70;1.60;;;;;;;2.42;100.00;94721.22;5013241;28;21081;-76
2022/01/05 02:21:42;;;;;;;0.90;0.90;;;;;;;2.33;100.00;94691.81;5000266;28;20450;-79
2022/01/05 02:24:11;;;;;;;1.50;1.40;;;;;;;2.31;100.00;94699.94;5014167;28;20493;-79
2022/01/05 02:26:39;;;;;;;1.10;1.00;;;;;;;2.24;100.00;94696.28;5030625;28;20454;-78
2022/01/05 02:29:06;;;;;;;1.30;1.00;;;;;;;2.38;100.00;94723.69;5014287;28;20855;-79
2022/01/05 02:31:33;;;;;;;1.10;1.00;;;;;;;2.20;100.00;94700.59;5014339;28;20454;-79
2022/01/05 02:34:01;;;;;;;1.10;1.00;;;;;;;2.40;100.00;94725.22;5014328;28;20466;-79
2022/01/05 02:36:28;;;;;;;0.80;0.80;;;;;;;2.52;100.00;94733.13;4997203;28;21027;-77
2022/01/05 02:38:55;;;;;;;1.00;1.00;;;;;;;2.41;100.00;94718.94;5019426;28;20440;-76
2022/01/05 02:41:22;;;;;;;1.03;0.93;;;;;;;2.31;100.00;94720.03;5053827;28;20817;-77
2022/01/05 02:43:49;;;;;;;1.27;1.17;;;;;;;2.17;100.00;94704.59;5054013;28;20869;-78
2022/01/05 02:46:19;;;;;;;1.37;1.00;;;;;;;2.22;100.00;94709.63;5070699;28;20460;-77
2022/01/05 02:48:51;;;;;;;1.00;0.90;;;;;;;2.27;100.00;94721.72;5070596;28;20482;-77
2022/01/05 02:51:18;;;;;;;1.10;1.00;;;;;;;2.16;100.00;94692.66;5070566;28;20881;-76
2022/01/05 02:53:46;;;;;;;1.13;1.03;;;;;;;2.42;100.00;94746.53;5071082;28;20913;-79
2022/01/05 02:56:13;;;;;;;0.93;0.93;;;;;;;2.34;100.00;94748.84;5071397;28;20518;-79
2022/01/05 02:58:40;;;;;;;1.17;1.07;;;;;;;1.94;100.00;94704.06;5071550;28;20440;-79
2022/01/05 03:01:08;;;;;;;0.90;0.90;;;;;;;1.88;100.00;94670.69;5071010;28;20790;-79
2022/01/05 03:03:35;;;;;;;2.20;1.20;;;;;;;1.99;100.00;94692.69;5071513;28;20464;-79
2022/01/05 03:06:01;;;;;;;1.30;1.20;;;;;;;2.12;100.00;94720.41;5073763;28;20490;-78
2022/01/05 03:08:28;;;;;;;1.10;1.00;;;;;;;2.22;100.00;94711.47;5074882;28;20427;-79
2022/01/05 03:10:56;;;;;;;0.80;0.80;;;;;;;2.35;100.00;94724.31;5076144;28;20806;-79
2022/01/05 03:13:25;;;;;;;1.07;0.97;;;;;;;2.09;100.00;94702.78;5075649;28;20456;-78
2022/01/05 03:15:54;;;;;;;2.53;1.13;;;;;;;2.33;100.00;94738.75;5076434;28;20743;-78
2022/01/05 03:18:21;;;;;;;1.67;1.57;;;;;;;2.35;100.00;94747.78;5076701;28;20511;-79
2022/01/05 03:20:48;;;;;;;1.07;1.00;;;;;;;2.21;100.00;94728.97;5058161;28;20442;-77
2022/01/05 03:23:16;;;;;;;1.67;1.57;;;;;;;2.34;100.00;94748.84;5073891;28;20447;-77
2022/01/05 03:25:43;;;;;;;1.40;1.30;;;;;;;2.24;100.00;94730.94;5073653;28;20522;-76
2022/01/05 03:28:10;;;;;;;1.10;1.00;;;;;;;2.20;100.00;94732.66;5073643;28;20490;-77
2022/01/05 03:30:38;;;;;;;1.37;1.27;;;;;;;2.08;100.00;94714.28;5074576;28;20444;-79
2022/01/05 03:33:19;;;;;;;1.10;1.10;;;;;;;1.99;100.00;94708.31;5075820;28;20800;-79
2022/01/05 03:35:48;;;;;;;1.27;1.17;;;;;;;2.23;100.00;94745.06;5073182;28;20509;-77
2022/01/05 03:38:16;;;;;;;1.10;1.10;;;;;;;1.87;100.00;94700.38;5073073;28;20436;-77
2022/01/05 03:40:46;;;;;;;1.53;1.43;;;;;;;2.24;100.00;94743.22;5074443;28;20983;-76
2022/01/05 03:43:13;;;;;;;1.60;1.50;;;;;;;2.12;100.00;94723.00;5073264;28;20819;-79
2022/01/05 03:45:41;;;;;;;1.30;1.10;;;;;;;2.32;100.00;94732.00;5091422;28;20484;-80
2022/01/05 03:48:11;;;;;;;2.30;1.17;;;;;;;2.00;100.00;94686.41;5074967;28;20948;-79
2022/01/05 03:50:38;;;;;;;1.43;1.33;;;;;;;2.34;100.00;94728.00;5075200;28;20486;-79
2022/01/05 03:53:06;;;;;;;1.40;1.30;;;;;;;2.06;100.00;94700.81;5074268;28;20846;-79
2022/01/05 03:55:34;;;;;;;1.30;1.20;;;;;;;2.03;100.00;94686.56;5090318;28;20485;-79
2022/01/05 03:58:02;;;;;;;1.17;1.07;;;;;;;2.13;100.00;94688.03;5073607;28;20478;-77
2022/01/05 04:00:29;;;;;;;0.93;0.93;;;;;;;2.13;100.00;94689.88;5055528;28;20460;-77
2022/01/05 04:02:58;;;;;;;1.80;1.70;;;;;;;2.36;100.00;94722.47;5055802;28;20468;-76
2022/01/05 04:05:25;;;;;;;1.27;1.17;;;;;;;2.42;100.00;94725.69;5072193;28;20425;-77
2022/01/05 04:07:52;;;;;;;1.27;1.17;;;;;;;2.36;100.00;94733.66;5072586;28;20474;-77
2022/01/05 04:10:19;;;;;;;1.53;1.43;;;;;;;2.16;100.00;94697.09;5072249;28;20497;-76
2022/01/05 04:12:47;;;;;;;1.20;1.10;;;;;;;2.40;100.00;94725.22;5072153;28;20494;-77
2022/01/05 04:15:14;;;;;;;1.30;1.20;;;;;;;2.36;100.00;94722.47;5072139;28;20495;-77
2022/01/05 04:17:41;;;;;;;1.30;1.20;;;;;;;2.42;100.00;94723.84;5087779;28;20530;-77
2022/01/05 04:20:09;;;;;;;1.43;1.33;;;;;;;2.48;100.00;94738.22;5072187;28;20424;-77
2022/01/05 04:22:36;;;;;;;2.00;1.30;;;;;;;2.19;100.00;94702.44;5071850;28;20443;-77
2022/01/05 04:25:03;;;;;;;1.67;1.30;;;;;;;2.04;100.00;94671.69;5072116;28;20993;-77
2022/01/05 04:27:30;;;;;;;0.90;0.90;;;;;;;2.49;100.00;94718.88;5072975;28;20456;-77
2022/01/05 04:29:56;;;;;;;1.40;1.20;;;;;;;2.48;100.00;94735.63;5071782;28;20473;-77
2022/01/05 04:32:23;;;;;;;1.17;1.07;;;;;;;2.29;100.00;94714.38;5071821;28;21018;-77
2022/01/05 04:35:13;;;;;;;2.87;1.50;;;;;;;2.53;100.00;94740.63;5058058;28;20476;-77
2022/01/05 04:37:55;;;;;;;1.53;1.37;;;;;;;2.33;100.00;94712.66;5071975;28;20471;-77
2022/01/05 04:40:22;;;;;;;1.37;1.27;;;;;;;1.78;100.00;94630.84;5055276;28;20444;-77
2022/01/05 04:42:49;;;;;;;1.27;1.17;;;;;;;2.08;100.00;94677.81;5071595;28;20487;-77
2022/01/05 04:45:16;;;;;;;1.23;1.13;;;;;;;2.49;100.00;94715.50;5071693;28;20436;-76
2022/01/05 04:47:42;;;;;;;1.50;1.23;;;;;;;2.55;100.00;94707.22;5054964;28;20455;-77
2022/01/05 04:50:14;;;;;;;1.40;1.30;;;;;;;2.37;100.00;94701.28;5055497;28;20441;-77
2022/01/05 04:52:42;;;;;;;1.57;1.47;;;;;;;2.23;100.00;94650.44;5071384;28;20487;-77
2022/01/05 04:55:09;;;;;;;1.40;1.30;;;;;;;1.97;100.00;94625.25;5073156;28;20464;-79
2022/01/05 04:57:36;;;;;;;1.50;1.40;;;;;;;2.78;100.00;94725.19;5058230;28;20876;-79
2022/01/05 05:00:04;;;;;;;2.07;1.07;;;;;;;2.58;100.00;94698.75;5091274;28;20436;-79
2022/01/05 05:02:30;;;;;;;1.97;1.10;;;;;;;2.25;100.00;94643.06;5075666;28;20437;-80
2022/01/05 05:04:57;;;;;;;1.40;1.30;;;;;;;2.74;100.00;94724.28;5075418;28;20472;-79
2022/01/05 05:07:24;;;;;;;33.30;19.20;;;;;;;2.57;100.00;94684.19;5075255;28;20461;-79
2022/01/05 05:09:51;;;;;;;7.27;5.60;;;;;;;2.49;100.00;94666.72;5074189;28;20432;-79
2022/01/05 05:12:17;;;;;;;12.40;8.80;;;;;;;2.90;100.00;94722.66;5057640;28;20436;-78
2022/01/05 05:14:44;;;;;;;7.20;5.03;;;;;;;2.40;100.00;94652.19;5074198;28;20468;-78
2022/01/05 05:17:11;;;;;;;1.83;1.23;;;;;;;2.02;100.00;94580.03;5074082;28;20448;-79
2022/01/05 05:19:38;;;;;;;3.67;3.37;;;;;;;2.88;100.00;94712.53;5073937;28;20436;-79
2022/01/05 05:22:05;;;;;;;1.60;1.50;;;;;;;2.39;100.00;94633.19;5075961;28;20463;-79
2022/01/05 05:24:31;;;;;;;3.10;1.97;;;;;;;2.61;100.00;94661.59;5074647;28;20780;-78
2022/01/05 05:26:59;;;;;;;1.30;1.20;;;;;;;2.79;100.00;94685.72;5075628;28;20484;-79
2022/01/05 05:29:25;;;;;;;1.83;1.73;;;;;;;2.43;100.00;94641.91;5075185;28;20458;-79
2022/01/05 05:31:52;;;;;;;1.57;1.47;;;;;;;2.82;100.00;94686.97;5072116;28;20523;-76
2022/01/05 05:34:19;;;;;;;1.70;1.60;;;;;;;3.10;100.00;94732.38;5070694;28;20826;-77
2022/01/05 05:36:46;;;;;;;2.53;2.33;;;;;;;2.97;100.00;94713.25;5070708;28;20529;-77
2022/01/05 05:39:12;;;;;;;1.77;1.67;;;;;;;2.93;100.00;94704.50;5071187;28;20444;-76
2022/01/05 05:41:39;;;;;;;1.77;1.67;;;;;;;2.94;100.00;94700.84;5054431;28;20528;-76
2022/01/05 05:44:06;;;;;;;5.13;4.70;;;;;;;2.93;100.00;94701.91;5068311;28;20440;-77
2022/01/05 05:46:33;;;;;;;3.23;2.10;;;;;;;3.09;100.00;94722.25;5087494;28;20472;-76
2022/01/05 05:49:00;;;;;;;3.17;2.77;;;;;;;2.91;100.00;94700.69;5069702;28;20803;-77
2022/01/05 05:51:27;;;;;;;2.60;1.90;;;;;;;2.70;100.00;94669.38;5051514;28;21010;-76
2022/01/05 05:53:54;;;;;;;1.60;1.50;;;;;;;2.81;100.00;94673.16;5073866;28;20481;-79
2022/01/05 05:56:21;;;;;;;1.50;1.20;;;;;;;3.09;100.00;94723.00;5055726;28;20479;-78
2022/01/05 05:58:48;;;;;;;1.53;1.23;;;;;;;2.70;100.00;94655.56;5055325;28;20440;-79
2022/01/05 06:01:15;;;;;;;1.53;1.43;;;;;;;2.92;100.00;94689.16;5055626;28;20436;-79
2022/01/05 06:03:42;;;;;;;1.77;1.67;;;;;;;2.98;100.00;94698.34;5072539;28;20444;-79
2022/01/05 06:06:09;;;;;;;1.23;1.13;;;;;;;2.44;100.00;94619.22;5055354;28;20486;-79
2022/01/05 06:08:40;;;;;;;1.87;1.67;;;;;;;2.81;100.00;94667.94;5056158;28;20952;-78
2022/01/05 06:11:07;;;;;;;1.60;1.50;;;;;;;3.12;100.00;94701.47;5055276;28;20956;-78
2022/01/05 06:13:34;;;;;;;0.90;0.90;;;;;;;3.06;100.00;94705.34;5055659;28;20444;-78
2022/01/05 06:16:00;;;;;;;1.73;1.53;;;;;;;2.77;100.00;94668.84;5054831;28;20961;-79
2022/01/05 06:18:27;;;;;;;1.30;1.20;;;;;;;2.78;100.00;94663.31;5073508;28;20428;-80
2022/01/05 06:20:54;;;;;;;1.60;1.50;;;;;;;2.73;100.00;94663.50;5072222;28;20467;-79
2022/01/05 06:23:20;;;;;;;2.03;1.57;;;;;;;3.09;100.00;94714.41;5071716;28;20495;-78
2022/01/05 06:25:47;;;;;;;1.67;1.57;;;;;;;2.55;100.00;94613.31;5054678;28;20520;-76
2022/01/05 06:28:14;;;;;;;1.90;1.77;;;;;;;2.93;100.00;94675.81;5072081;28;20506;-76
2022/01/05 06:30:41;;;;;;;1.90;1.63;;;;;;;3.04;100.00;94684.03;5070904;28;20962;-76
2022/01/05 06:33:08;;;;;;;1.50;1.40;;;;;;;3.05;100.00;94684.78;5071386;28;20942;-78
2022/01/05 06:35:34;;;;;;;1.53;1.43;;;;;;;2.60;100.00;94631.38;5055904;28;20503;-78
2022/01/05 06:38:01;;;;;;;2.00;1.90;;;;;;;3.23;100.00;94723.53;5073268;28;20433;-78
2022/01/05 06:40:28;;;;;;;1.57;1.47;;;;;;;2.90;100.00;94681.66;5057817;28;20439;-79
2022/01/05 06:42:55;;;;;;;2.00;1.80;;;;;;;3.20;100.00;94726.75;5060050;28;20498;-78
2022/01/05 06:45:22;;;;;;;1.73;1.63;;;;;;;3.23;100.00;94751.47;5060081;28;20440;-79
2022/01/05 06:47:49;;;;;;;2.13;1.93;;;;;;;3.21;100.00;94732.75;5076781;28;20440;-79
2022/01/05 06:50:16;;;;;;;1.80;1.63;;;;;;;2.98;100.00;94708.78;5077264;28;20440;-79
2022/01/05 06:52:43;;;;;;;1.87;1.77;;;;;;;3.03;100.00;94705.22;5060409;28;20505;-79
2022/01/05 06:55:10;;;;;;;1.93;1.40;;;;;;;3.12;100.00;94739.88;5076595;28;20467;-78
2022/01/05 06:57:40;;;;;;;1.50;1.40;;;;;;;2.84;100.00;94722.09;5060154;28;20465;-78
2022/01/05 07:00:11;;;;;;;1.10;1.00;;;;;;;2.46;100.00;94666.59;5078193;28;20462;-78
2022/01/05 07:02:38;;;;;;;1.13;1.03;;;;;;;2.83;100.00;94731.00;5060595;28;20969;-79
2022/01/05 07:05:05;;;;;;;1.17;1.07;;;;;;;2.77;100.00;94734.84;5072431;28;20522;-76
2022/01/05 07:07:33;;;;;;;0.93;0.90;;;;;;;2.86;100.00;94773.97;5075178;28;20522;-77
2022/01/05 07:09:59;;;;;;;1.10;1.00;;;;;;;2.41;100.00;94704.06;5057205;28;20527;-76
2022/01/05 07:12:27;;;;;;;0.97;0.80;;;;;;;2.76;100.00;94766.47;5074159;28;20450;-77
2022/01/05 07:14:54;;;;;;;1.30;1.20;;;;;;;2.67;100.00;94763.91;5073885;28;20895;-77
2022/01/05 07:17:20;;;;;;;1.30;1.20;;;;;;;2.42;100.00;94741.31;5074030;28;20521;-77
2022/01/05 07:19:47;;;;;;;1.07;0.97;;;;;;;2.19;100.00;94712.88;5074248;28;20428;-77
2022/01/05 07:22:14;;;;;;;1.20;1.00;;;;;;;2.58;100.00;94782.22;5074360;28;20460;-78
2022/01/05 07:24:40;;;;;;;1.13;1.03;;;;;;;2.18;100.00;94724.38;5074078;28;20845;-76
2022/01/05 07:27:08;;;;;;;0.77;0.73;;;;;;;2.67;100.00;94803.81;5058897;28;20482;-79
2022/01/05 07:29:34;;;;;;;1.57;1.47;;;;;;;2.59;100.00;94791.56;5059496;28;20444;-77
2022/01/05 07:32:01;;;;;;;1.00;1.00;;;;;;;2.41;100.00;94784.13;5076268;28;20876;-80
2022/01/05 07:34:28;;;;;;;1.13;1.03;;;;;;;2.52;100.00;94842.69;5077204;28;20463;-79
2022/01/05 07:36:55;;;;;;;2.07;1.77;;;;;;;2.33;100.00;94859.44;5058860;28;20475;-78
2022/01/05 07:39:21;;;;;;;0.80;0.80;;;;;;;1.95;100.00;94884.63;5058827;28;20492;-77
2022/01/05 07:41:48;;;;;;;1.30;1.00;;;;;;;1.62;100.00;94879.84;5074796;28;20428;-78
2022/01/05 07:44:15;;;;;;;0.70;0.70;;;;;;;1.32;100.00;94870.28;5074737;28;20770;-78
2022/01/05 07:46:41;;;;;;;1.20;1.10;;;;;;;1.19;100.00;94864.13;5074856;28;20456;-78
2022/01/05 07:49:09;;;;;;;1.03;0.93;;;;;;;1.05;100.00;94829.66;5058313;28;20498;-78
2022/01/05 07:51:35;;;;;;;0.90;0.80;;;;;;;1.05;100.00;94851.22;5074583;28;20498;-78
2022/01/05 07:54:02;;;;;;;0.83;0.83;;;;;;;1.03;100.00;94884.59;5074893;28;20444;-79
2022/01/05 07:56:29;;;;;;;1.00;0.93;;;;;;;1.10;100.00;94918.75;5076426;28;20468;-78
2022/01/05 07:58:56;;;;;;;3.90;0.90;;;;;;;1.14;100.00;94935.31;5076387;28;20509;-78
2022/01/05 08:01:23;;;;;;;1.53;1.00;;;;;;;0.17;100.00;94817.34;5075632;28;20441;-79
2022/01/05 08:03:50;;;;;;;1.10;0.90;;;;;;;1.07;100.00;94947.19;5076959;28;20438;-79
2022/01/05 08:06:20;;;;;;;3.23;1.07;;;;;;;0.72;100.00;94925.47;5059931;28;20971;-78
2022/01/05 08:08:48;;;;;;;1.20;1.10;;;;;;;0.74;100.00;94955.31;5076505;28;20440;-79
2022/01/05 08:11:16;;;;;;;1.37;1.00;;;;;;;0.57;100.00;94940.38;5077796;28;20498;-79
2022/01/05 08:13:43;;;;;;;1.10;0.97;;;;;;;0.81;100.00;94993.91;5060239;28;20846;-79
2022/01/05 08:16:10;;;;;;;1.20;1.10;;;;;;;0.72;100.00;94980.06;5073452;28;20517;-79
2022/01/05 08:18:37;;;;;;;1.40;1.30;;;;;;;0.34;100.00;94961.47;5059898;28;20846;-79
2022/01/05 08:21:03;;;;;;;1.00;0.90;;;;;;;0.65;100.00;95010.91;5077619;28;20432;-78
2022/01/05 08:23:31;;;;;;;1.47;1.30;;;;;;;0.22;100.00;94961.97;5076250;28;20486;-80
2022/01/05 08:25:57;;;;;;;3.40;1.20;;;;;;;0.37;100.00;94990.22;5078080;28;20859;-80
2022/01/05 08:28:24;;;;;;;1.70;1.13;;;;;;;0.46;100.00;95024.09;5076209;28;20440;-80
2022/01/05 08:30:51;;;;;;;1.07;1.00;;;;;;;0.56;100.00;95058.44;5075419;28;20440;-80
2022/01/05 08:33:18;;;;;;;1.23;1.13;;;;;;;0.58;100.00;95068.53;5076934;28;20450;-80
2022/01/05 08:35:46;;;;;;;2.63;1.07;;;;;;;0.41;100.00;95042.41;5075545;28;20478;-80
2022/01/05 08:38:15;;;;;;;1.23;0.80;;;;;;;0.55;100.00;95069.91;5075349;28;20436;-81
2022/01/05 08:40:42;;;;;;;1.70;1.20;;;;;;;0.62;100.00;95098.09;5075341;28;21016;-80
2022/01/05 08:43:10;;;;;;;2.70;1.30;;;;;;;0.76;100.00;95095.44;5076473;28;20462;-80
2022/01/05 08:45:39;;;;;;;2.93;1.20;;;;;;;0.26;100.00;95041.66;5075272;28;20456;-80
2022/01/05 08:48:12;;;;;;;3.50;1.40;;;;;;;0.57;100.00;95104.19;5075246;28;20878;-80
2022/01/05 08:50:39;;;;;;;2.30;1.00;;;;;;;-0.14;100.00;95026.88;5057948;28;20440;-80
2022/01/05 08:53:07;;;;;;;1.87;1.40;;;;;;;0.38;100.00;95110.56;5074866;28;20537;-80
2022/01/05 08:55:45;;;;;;;1.60;1.00;;;;;;;0.49;100.00;95114.50;5073614;28;20463;-81
2022/01/05 08:58:13;;;;;;;1.20;1.10;;;;;;;0.02;100.00;95035.16;5057689;28;20433;-80
2022/01/05 09:00:40;;;;;;;3.10;1.33;;;;;;;0.34;100.00;95081.00;5077113;28;20791;-80
2022/01/05 09:03:07;;;;;;;4.53;1.60;;;;;;;0.26;100.00;95066.88;5076006;28;20437;-79
2022/01/05 09:05:35;;;;;;;2.90;1.53;;;;;;;0.71;100.00;95137.19;5076361;28;20448;-80
2022/01/05 09:08:02;;;;;;;5.53;1.77;;;;;;;0.64;100.00;95082.97;5076268;28;20424;-80
2022/01/05 09:10:29;;;;;;;8.13;1.73;;;;;;;0.90;100.00;95127.38;5057532;28;20490;-77
2022/01/05 09:12:57;;;;;;;2.07;1.87;;;;;;;0.77;100.00;95121.16;5074093;28;20447;-80
2022/01/05 09:15:25;;;;;;;7.03;1.40;;;;;;;0.82;100.00;95123.66;5056434;28;20517;-77
2022/01/05 09:17:53;;;;;;;2.80;2.10;;;;;;;0.77;100.00;95136.78;5073479;28;20435;-76
2022/01/05 09:20:20;;;;;;;2.43;1.60;;;;;;;0.59;100.00;95091.66;5074241;28;20440;-80
2022/01/05 09:22:47;;;;;;;4.30;1.80;;;;;;;0.79;100.00;95139.06;5074722;28;20440;-76
2022/01/05 09:25:16;;;;;;;2.90;1.80;;;;;;;0.86;100.00;95134.25;5067352;28;20465;-77
2022/01/05 09:27:44;;;;;;;1.80;1.70;;;;;;;0.87;100.00;95154.78;5073543;28;20443;-80
2022/01/05 09:30:13;;;;;;;6.13;2.17;;;;;;;0.83;100.00;95155.66;5075269;28;20433;-76
2022/01/05 09:32:40;;;;;;;2.40;2.20;;;;;;;1.03;100.00;95163.00;5057346;28;20533;-80
2022/01/05 09:35:09;;;;;;;1.53;1.43;;;;;;;0.76;100.00;95144.88;5057042;28;21018;-77
2022/01/05 09:37:48;;;;;;;1.53;1.43;;;;;;;0.95;100.00;95168.94;5055663;28;20468;-76
2022/01/05 09:43:03;;;;;;;5.80;2.43;;;;;;;0.37;100.00;95112.38;5073037;28;20462;-77
2022/01/05 09:45:33;;;;;;;4.40;2.93;;;;;;;0.29;100.00;95144.28;5056531;28;20437;-77
2022/01/05 09:48:18;;;;;;;7.43;2.97;;;;;;;0.67;100.00;95183.03;5074289;28;20444;-80
2022/01/05 09:50:55;;;;;;;6.50;1.93;;;;;;;0.47;100.00;95132.97;5073287;28;21028;-77
2022/01/05 09:53:23;;;;;;;2.83;2.30;;;;;;;0.52;100.00;95135.47;5055769;28;20506;-79
2022/01/05 09:55:52;;;;;;;2.80;1.60;;;;;;;0.74;100.00;95180.81;5073913;28;21018;-80
2022/01/05 09:58:20;;;;;;;2.13;1.90;;;;;;;0.75;100.00;95195.34;5072696;28;20843;-77
2022/01/05 10:00:49;;;;;;;3.00;2.07;;;;;;;0.76;100.00;95186.47;5071193;28;20436;-77
2022/01/05 10:03:17;;;;;;;3.67;1.70;;;;;;;0.74;100.00;95197.19;5055695;28;20448;-81
2022/01/05 10:05:44;;;;;;;1.93;1.67;;;;;;;0.85;100.00;95208.94;5074698;28;20521;-82
2022/01/05 10:08:12;;;;;;;3.23;2.60;;;;;;;0.44;100.00;95195.19;5073206;28;20519;-80
2022/01/05 10:10:41;;;;;;;2.60;2.30;;;;;;;0.72;100.00;95219.34;5057452;28;20844;-80
2022/01/05 10:13:07;;;;;;;5.13;2.60;;;;;;;0.74;100.00;95223.19;5072710;28;20443;-77
2022/01/05 10:15:35;;;;;;;3.20;2.27;;;;;;;0.71;100.00;95207.41;5074585;28;20467;-77
2022/01/05 10:18:11;;;;;;;4.50;2.93;;;;;;;0.77;100.00;95229.63;5077553;28;20460;-77
2022/01/05 10:20:53;;;;;;;2.77;2.20;;;;;;;0.73;100.00;95239.84;5077742;28;20444;-81
2022/01/05 10:23:45;;;;;;;1.87;1.77;;;;;;;0.66;100.00;95246.50;5060630;28;20447;-77
2022/01/05 10:26:36;;;;;;;6.07;2.67;;;;;;;0.67;100.00;95242.84;5059046;28;20467;-76
2022/01/05 10:29:15;;;;;;;6.60;3.27;;;;;;;0.39;100.00;95232.44;5076415;28;20868;-76
2022/01/05 10:31:43;;;;;;;2.93;2.73;;;;;;;0.31;100.00;95230.50;5075448;28;20477;-77
2022/01/05 10:34:16;;;;;;;4.80;2.60;;;;;;;0.40;100.00;95249.59;5075204;28;20458;-80
2022/01/05 10:36:48;;;;;;;5.00;2.10;;;;;;;0.39;100.00;95262.84;5061150;28;20487;-80
2022/01/05 10:39:20;;;;;;;2.33;1.80;;;;;;;0.11;100.00;95216.03;5076347;28;20435;-77
2022/01/05 10:41:47;;;;;;;2.93;2.60;;;;;;;0.19;100.00;95251.00;5058410;28;20890;-77
2022/01/05 10:44:22;;;;;;;4.50;2.73;;;;;;;0.33;100.00;95264.00;5058757;28;20509;-77
2022/01/05 10:46:56;;;;;;;4.03;2.20;;;;;;;0.20;100.00;95265.53;5075879;28;20448;-80
2022/01/05 10:49:34;;;;;;;3.63;2.80;;;;;;;0.20;100.00;95224.72;5077807;28;20408;-77
2022/01/05 10:52:26;;;;;;;3.83;2.70;;;;;;;0.80;100.00;95281.06;5058528;28;20543;-77
2022/01/05 10:54:54;;;;;;;3.83;2.27;;;;;;;0.73;100.00;95278.88;5057418;28;20416;-77
2022/01/05 10:57:22;;;;;;;2.37;1.97;;;;;;;0.78;100.00;95286.56;5073945;28;21101;-77
2022/01/05 10:59:53;;;;;;;5.40;2.83;;;;;;;0.80;100.00;95294.88;5058095;28;20446;-76
2022/01/05 11:02:23;;;;;;;2.30;2.10;;;;;;;0.98;100.00;95282.81;5075302;28;20462;-79
2022/01/05 11:05:14;;;;;;;2.40;1.70;;;;;;;0.82;100.00;95294.59;5058758;28;20977;-80
2022/01/05 11:07:46;;;;;;;4.57;2.27;;;;;;;0.21;100.00;95220.28;5074693;28;20447;-77
2022/01/05 11:10:18;;;;;;;3.10;2.50;;;;;;;0.44;100.00;95265.38;5075242;28;20463;-77
2022/01/05 11:12:53;;;;;;;3.43;2.33;;;;;;;0.17;100.00;95256.50;5076446;28;20450;-76
2022/01/05 11:15:27;;;;;;;3.60;2.00;;;;;;;0.41;100.00;95297.94;5074783;28;20459;-78
2022/01/05 11:18:11;;;;;;;2.50;1.80;;;;;;;0.72;100.00;95305.94;5067320;28;20443;-76
2022/01/05 11:20:58;;;;;;;3.93;1.93;;;;;;;0.72;100.00;95305.94;5082070;28;20409;-77
2022/01/05 11:23:26;;;;;;;4.60;1.93;;;;;;;0.54;100.00;95275.59;5062827;28;20430;-78
2022/01/05 11:25:55;;;;;;;4.80;2.10;;;;;;;0.63;100.00;95299.84;5059731;28;20464;-78
2022/01/05 11:28:24;;;;;;;5.63;2.70;;;;;;;0.58;100.00;95300.72;5061760;28;20445;-77
2022/01/05 11:30:52;;;;;;;2.87;2.33;;;;;;;0.31;100.00;95305.88;5060281;28;20973;-80
2022/01/05 11:33:20;;;;;;;3.83;2.17;;;;;;;0.68;100.00;95315.38;5076780;28;20954;-80
2022/01/05 11:35:48;;;;;;;6.77;2.60;;;;;;;0.29;100.00;95263.81;5059886;28;20472;-79
2022/01/05 11:38:15;;;;;;;4.57;2.77;;;;;;;0.44;100.00;95289.53;5077418;28;20459;-77
2022/01/05 11:40:51;;;;;;;6.50;3.40;;;;;;;0.41;100.00;95284.94;5075861;28;20445;-76
2022/01/05 11:43:26;;;;;;;4.97;3.07;;;;;;;0.40;100.00;95280.78;5074401;28;20443;-77